Time,TemperatureF,DewpointF,PressureIn,WindDirection,WindDirectionDegrees,WindSpeedMPH,WindSpeedGustMPH,Humidity,HourlyPrecipIn,Conditions,Clouds,dailyrainin,SoftwareType,DateUTC
2013-07-24 00:00:00,68.9,67.1,29.72,NNE,33,0.0,0.0,94,0.00,,,0.01,Wunderground v.1.15,2013-07-24 04:00:00,
2013-07-24 00:05:00,68.8,67.0,29.72,NNE,33,0.0,0.0,94,0.00,,,0.00,Wunderground v.1.15,2013-07-24 04:05:00,
2013-07-24 00:10:00,68.9,67.4,29.72,NNE,33,0.0,0.0,95,0.00,,,0.00,Wunderground v.1.15,2013-07-24 04:10:00,
2013-07-24 00:15:00,68.8,67.3,29.72,NNE,33,0.0,0.0,95,0.00,,,0.00,Wunderground v.1.15,2013-07-24 04:15:00,
2013-07-24 00:20:00,68.7,67.2,29.72,NNE,33,0.0,0.0,95,0.00,,,0.00,Wunderground v.1.15,2013-07-24 04:20:00,
2013-07-24 00:25:00,68.6,66.8,29.72,NNE,33,0.0,0.0,94,0.00,,,0.00,Wunderground v.1.15,2013-07-24 04:25:00,
2013-07-24 00:30:00,68.5,66.7,29.72,NNE,33,0.0,0.0,94,0.00,,,0.00,Wunderground v.1.15,2013-07-24 04:30:00,
2013-07-24 00:40:00,68.3,66.8,29.72,NNE,33,0.0,0.0,95,0.00,,,0.00,Wunderground v.1.15,2013-07-24 04:40:00,
2013-07-24 00:45:00,68.2,66.7,29.72,NNE,33,0.0,0.0,95,0.00,,,0.00,Wunderground v.1.15,2013-07-24 04:45:00,
2013-07-24 00:50:00,68.2,66.7,29.72,NNE,33,0.0,0.0,95,0.00,,,0.00,Wunderground v.1.15,2013-07-24 04:50:00,
2013-07-24 00:55:00,68.2,66.7,29.72,NNE,33,0.0,0.0,95,0.00,,,0.00,Wunderground v.1.15,2013-07-24 04:55:00,
2013-07-24 01:00:00,68.3,66.8,29.72,NNE,33,0.0,0.0,95,0.00,,,0.00,Wunderground v.1.15,2013-07-24 05:00:00,
2013-07-24 01:05:00,68.3,66.8,29.72,NNE,33,0.0,0.0,95,0.00,,,0.00,Wunderground v.1.15,2013-07-24 05:05:00,
2013-07-24 01:15:00,68.2,66.7,29.71,NNE,33,0.0,0.0,95,0.00,,,0.00,Wunderground v.1.15,2013-07-24 05:15:00,
2013-07-24 01:20:00,68.0,66.5,29.71,NNE,33,0.0,0.0,95,0.00,,,0.00,Wunderground v.1.15,2013-07-24 05:20:00,
2013-07-24 01:30:00,67.9,66.4,29.70,NNE,33,0.0,0.0,95,0.00,,,0.00,Wunderground v.1.15,2013-07-24 05:30:00,
2013-07-24 01:40:00,67.7,66.2,29.70,NNE,33,0.0,0.0,95,0.00,,,0.00,Wunderground v.1.15,2013-07-24 05:40:00,
2013-07-24 01:45:00,67.7,66.2,29.70,NNE,33,0.0,0.0,95,0.00,,,0.00,Wunderground v.1.15,2013-07-24 05:45:00,
2013-07-24 01:55:00,67.7,66.2,29.70,NNE,33,0.0,2.0,95,0.00,,,0.00,Wunderground v.1.15,2013-07-24 05:55:00,
2013-07-24 02:00:00,67.6,66.1,29.70,NNE,33,1.0,1.0,95,0.00,,,0.00,Wunderground v.1.15,2013-07-24 06:00:00,
2013-07-24 02:05:00,67.6,66.1,29.69,NNE,33,0.0,1.0,95,0.00,,,0.00,Wunderground v.1.15,2013-07-24 06:05:00,
2013-07-24 02:10:00,67.6,66.1,29.69,NW,304,0.0,0.0,95,0.00,,,0.00,Wunderground v.1.15,2013-07-24 06:10:00,
2013-07-24 02:20:00,68.0,66.5,29.69,North,5,0.0,0.0,95,0.00,,,0.00,Wunderground v.1.15,2013-07-24 06:20:00,
2013-07-24 02:30:00,67.8,66.3,29.69,North,5,0.0,0.0,95,0.00,,,0.00,Wunderground v.1.15,2013-07-24 06:30:00,
2013-07-24 02:35:00,67.6,66.1,29.69,North,5,0.0,0.0,95,0.00,,,0.00,Wunderground v.1.15,2013-07-24 06:35:00,
2013-07-24 02:40:00,67.6,66.1,29.69,North,5,0.0,0.0,95,0.00,,,0.00,Wunderground v.1.15,2013-07-24 06:40:00,
2013-07-24 02:50:00,67.9,66.4,29.68,North,5,0.0,1.0,95,0.00,,,0.00,Wunderground v.1.15,2013-07-24 06:50:00,
2013-07-24 02:55:00,68.0,66.5,29.68,North,5,0.0,1.0,95,0.00,,,0.00,Wunderground v.1.15,2013-07-24 06:55:00,
2013-07-24 03:00:00,68.3,66.8,29.67,North,5,0.0,0.0,95,0.00,,,0.00,Wunderground v.1.15,2013-07-24 07:00:00,
2013-07-24 03:10:00,68.2,66.7,29.67,North,5,0.0,0.0,95,0.00,,,0.00,Wunderground v.1.15,2013-07-24 07:10:00,
2013-07-24 03:15:00,68.1,66.3,29.67,North,5,0.0,0.0,94,0.00,,,0.00,Wunderground v.1.15,2013-07-24 07:15:00,
2013-07-24 03:25:00,67.6,65.8,29.67,North,5,0.0,0.0,94,0.00,,,0.00,Wunderground v.1.15,2013-07-24 07:25:00,
2013-07-24 03:30:00,67.4,65.6,29.67,North,5,0.0,0.0,94,0.00,,,0.00,Wunderground v.1.15,2013-07-24 07:30:00,
2013-07-24 03:40:00,67.2,65.7,29.66,North,5,0.0,0.0,95,0.00,,,0.00,Wunderground v.1.15,2013-07-24 07:40:00,
2013-07-24 03:45:00,67.2,65.7,29.66,North,5,0.0,0.0,95,0.00,,,0.00,Wunderground v.1.15,2013-07-24 07:45:00,
2013-07-24 03:55:00,66.8,65.3,29.66,SSW,205,0.0,2.0,95,0.00,,,0.00,Wunderground v.1.15,2013-07-24 07:55:00,
2013-07-24 04:00:00,66.8,65.3,29.66,South,169,1.0,2.0,95,0.00,,,0.00,Wunderground v.1.15,2013-07-24 08:00:00,
2013-07-24 04:05:00,67.2,66.0,29.66,SSW,209,2.0,2.0,96,0.00,,,0.00,Wunderground v.1.15,2013-07-24 08:05:00,
2013-07-24 04:10:00,67.4,65.9,29.66,West,280,2.0,2.0,95,0.00,,,0.00,Wunderground v.1.15,2013-07-24 08:10:00,
2013-07-24 04:20:00,68.1,66.6,29.67,SW,229,1.0,1.0,95,0.00,,,0.00,Wunderground v.1.15,2013-07-24 08:20:00,
2013-07-24 04:25:00,68.4,66.6,29.66,SW,229,0.0,1.0,94,0.00,,,0.00,Wunderground v.1.15,2013-07-24 08:25:00,
2013-07-24 04:30:00,69.1,67.0,29.66,SSW,207,0.0,0.0,93,0.00,,,0.00,Wunderground v.1.15,2013-07-24 08:30:00,
2013-07-24 04:35:00,69.7,67.0,29.66,West,271,0.0,0.0,91,0.00,,,0.00,Wunderground v.1.15,2013-07-24 08:35:00,
2013-07-24 04:45:00,70.9,67.5,29.66,SSW,206,1.0,2.0,89,0.00,,,0.00,Wunderground v.1.15,2013-07-24 08:45:00,
2013-07-24 04:50:00,71.2,67.5,29.66,West,272,1.0,1.0,88,0.00,,,0.00,Wunderground v.1.15,2013-07-24 08:50:00,
2013-07-24 04:55:00,71.3,67.6,29.66,WSW,257,0.0,1.0,88,0.00,,,0.00,Wunderground v.1.15,2013-07-24 08:55:00,
2013-07-24 05:00:00,71.4,67.7,29.66,WSW,244,0.0,1.0,88,0.00,,,0.00,Wunderground v.1.15,2013-07-24 09:00:00,
2013-07-24 05:05:00,71.6,67.5,29.66,WNW,288,1.0,1.0,87,0.00,,,0.00,Wunderground v.1.15,2013-07-24 09:05:00,
2013-07-24 05:10:00,71.8,68.1,29.66,West,259,1.0,1.0,88,0.00,,,0.00,Wunderground v.1.15,2013-07-24 09:10:00,
2013-07-24 05:15:00,71.6,67.5,29.66,WSW,246,0.0,1.0,87,0.00,,,0.00,Wunderground v.1.15,2013-07-24 09:15:00,
2013-07-24 05:25:00,71.8,67.7,29.66,WSW,252,0.0,1.0,87,0.00,,,0.00,Wunderground v.1.15,2013-07-24 09:25:00,
2013-07-24 05:35:00,72.4,68.0,29.67,WSW,238,0.0,1.0,86,0.00,,,0.00,Wunderground v.1.15,2013-07-24 09:35:00,
2013-07-24 05:45:00,72.8,68.0,29.67,ESE,109,1.0,1.0,85,0.00,,,0.00,Wunderground v.1.15,2013-07-24 09:45:00,
2013-07-24 05:55:00,71.9,67.5,29.68,ESE,109,0.0,0.0,86,0.00,,,0.00,Wunderground v.1.15,2013-07-24 09:55:00,
2013-07-24 06:00:00,71.4,67.7,29.68,NW,313,0.0,1.0,88,0.00,,,0.00,Wunderground v.1.15,2013-07-24 10:00:00,
2013-07-24 06:10:00,70.8,67.1,29.69,NW,312,0.0,0.0,88,0.00,,,0.00,Wunderground v.1.15,2013-07-24 10:10:00,
2013-07-24 06:15:00,70.6,66.9,29.69,WNW,290,0.0,0.0,88,0.00,,,0.00,Wunderground v.1.15,2013-07-24 10:15:00,
2013-07-24 06:25:00,69.9,66.8,29.69,SSW,209,0.0,1.0,90,0.00,,,0.00,Wunderground v.1.15,2013-07-24 10:25:00,
2013-07-24 06:30:00,69.6,66.9,29.69,SSW,209,0.0,1.0,91,0.00,,,0.00,Wunderground v.1.15,2013-07-24 10:30:00,
2013-07-24 06:40:00,69.8,67.1,29.69,SSW,199,2.0,2.0,91,0.00,,,0.00,Wunderground v.1.15,2013-07-24 10:40:00,
2013-07-24 06:45:00,69.7,67.0,29.69,South,177,1.0,2.0,91,0.00,,,0.00,Wunderground v.1.15,2013-07-24 10:45:00,
2013-07-24 06:55:00,70.1,67.3,29.70,NNE,20,1.0,1.0,91,0.00,,,0.00,Wunderground v.1.15,2013-07-24 10:55:00,
2013-07-24 07:00:00,70.1,67.7,29.71,NNE,20,0.0,0.0,92,0.00,,,0.00,Wunderground v.1.15,2013-07-24 11:00:00,
2013-07-24 07:05:00,70.2,67.4,29.71,NNE,20,0.0,0.0,91,0.00,,,0.00,Wunderground v.1.15,2013-07-24 11:05:00,
2013-07-24 07:10:00,70.4,68.0,29.71,NNE,20,0.0,0.0,92,0.00,,,0.00,Wunderground v.1.15,2013-07-24 11:10:00,
2013-07-24 07:15:00,70.8,68.0,29.71,NNE,20,0.0,0.0,91,0.00,,,0.00,Wunderground v.1.15,2013-07-24 11:15:00,
2013-07-24 07:25:00,71.6,68.8,29.71,NNE,20,0.0,0.0,91,0.00,,,0.00,Wunderground v.1.15,2013-07-24 11:25:00,
2013-07-24 07:35:00,72.5,69.4,29.71,NNE,20,0.0,0.0,90,0.00,,,0.00,Wunderground v.1.15,2013-07-24 11:35:00,
2013-07-24 07:45:00,74.0,70.9,29.71,NNE,20,0.0,0.0,90,0.00,,,0.00,Wunderground v.1.15,2013-07-24 11:45:00,
2013-07-24 07:55:00,74.8,71.7,29.71,NNE,20,0.0,0.0,90,0.00,,,0.00,Wunderground v.1.15,2013-07-24 11:55:00,
2013-07-24 08:00:00,75.0,71.2,29.71,NNE,20,0.0,0.0,88,0.00,,,0.00,Wunderground v.1.15,2013-07-24 12:00:00,
2013-07-24 08:05:00,75.4,71.3,29.71,NNE,20,0.0,0.0,87,0.00,,,0.00,Wunderground v.1.15,2013-07-24 12:05:00,
2013-07-24 08:10:00,75.7,72.2,29.72,NNE,20,0.0,0.0,89,0.00,,,0.00,Wunderground v.1.15,2013-07-24 12:10:00,
2013-07-24 08:15:00,75.8,72.0,29.72,NNE,20,0.0,1.0,88,0.00,,,0.00,Wunderground v.1.15,2013-07-24 12:15:00,
2013-07-24 08:25:00,76.2,71.0,29.72,NNE,20,0.0,0.0,84,0.00,,,0.00,Wunderground v.1.15,2013-07-24 12:25:00,
2013-07-24 08:35:00,77.5,71.2,29.73,NNE,20,0.0,0.0,81,0.00,,,0.00,Wunderground v.1.15,2013-07-24 12:35:00,
2013-07-24 08:45:00,78.7,72.0,29.74,NNW,333,1.0,3.0,80,0.00,,,0.00,Wunderground v.1.15,2013-07-24 12:45:00,
2013-07-24 08:55:00,78.5,70.7,29.74,NNE,16,0.0,1.0,77,0.00,,,0.00,Wunderground v.1.15,2013-07-24 12:55:00,
2013-07-24 09:00:00,78.4,71.3,29.74,NNE,16,0.0,0.0,79,0.00,,,0.00,Wunderground v.1.15,2013-07-24 13:00:00,
2013-07-24 09:10:00,78.4,70.6,29.75,North,350,0.0,3.0,77,0.00,,,0.00,Wunderground v.1.15,2013-07-24 13:10:00,
2013-07-24 09:20:00,78.2,70.8,29.75,NNW,342,1.0,1.0,78,0.00,,,0.00,Wunderground v.1.15,2013-07-24 13:20:00,
2013-07-24 09:25:00,78.3,70.9,29.75,North,5,1.0,1.0,78,0.00,,,0.00,Wunderground v.1.15,2013-07-24 13:25:00,
2013-07-24 09:35:00,78.8,71.4,29.75,North,5,0.0,1.0,78,0.00,,,0.00,Wunderground v.1.15,2013-07-24 13:35:00,
2013-07-24 09:40:00,79.3,71.1,29.75,North,5,0.0,0.0,76,0.00,,,0.00,Wunderground v.1.15,2013-07-24 13:40:00,
2013-07-24 09:45:00,79.6,71.4,29.76,WNW,286,0.0,0.0,76,0.00,,,0.00,Wunderground v.1.15,2013-07-24 13:45:00,
2013-07-24 09:55:00,79.7,72.2,29.75,NNW,333,0.0,1.0,78,0.00,,,0.00,Wunderground v.1.15,2013-07-24 13:55:00,
2013-07-24 10:00:00,79.6,72.5,29.76,NNW,333,0.0,0.0,79,0.00,,,0.00,Wunderground v.1.15,2013-07-24 14:00:00,
2013-07-24 10:05:00,79.4,72.7,29.76,NNW,333,0.0,0.0,80,0.00,,,0.00,Wunderground v.1.15,2013-07-24 14:05:00,
2013-07-24 10:10:00,79.4,72.7,29.76,NNW,333,0.0,0.0,80,0.00,,,0.00,Wunderground v.1.15,2013-07-24 14:10:00,
2013-07-24 10:15:00,79.4,73.4,29.76,NNW,333,0.0,0.0,82,0.00,,,0.00,Wunderground v.1.15,2013-07-24 14:15:00,
2013-07-24 10:25:00,79.4,72.7,29.76,NNW,333,0.0,0.0,80,0.00,,,0.00,Wunderground v.1.15,2013-07-24 14:25:00,
2013-07-24 10:35:00,79.7,73.0,29.76,NNW,333,0.0,0.0,80,0.00,,,0.00,Wunderground v.1.15,2013-07-24 14:35:00,
2013-07-24 10:40:00,79.7,72.6,29.76,NNW,333,0.0,0.0,79,0.00,,,0.00,Wunderground v.1.15,2013-07-24 14:40:00,
2013-07-24 10:45:00,79.6,74.0,29.76,NNW,333,0.0,0.0,83,0.00,,,0.00,Wunderground v.1.15,2013-07-24 14:45:00,
2013-07-24 10:55:00,79.1,72.4,29.76,NNW,333,0.0,0.0,80,0.00,,,0.00,Wunderground v.1.15,2013-07-24 14:55:00,
2013-07-24 11:00:00,79.1,72.0,29.76,NNW,333,0.0,0.0,79,0.00,,,0.00,Wunderground v.1.15,2013-07-24 15:00:00,
2013-07-24 11:05:00,79.4,71.9,29.76,NNW,333,0.0,0.0,78,0.00,,,0.00,Wunderground v.1.15,2013-07-24 15:05:00,
2013-07-24 11:10:00,79.7,71.8,29.76,NNW,333,0.0,0.0,77,0.00,,,0.00,Wunderground v.1.15,2013-07-24 15:10:00,
2013-07-24 11:20:00,80.4,70.9,29.76,SE,130,1.0,1.0,73,0.00,,,0.00,Wunderground v.1.15,2013-07-24 15:20:00,
2013-07-24 11:25:00,80.7,71.2,29.76,SE,135,1.0,1.0,73,0.00,,,0.00,Wunderground v.1.15,2013-07-24 15:25:00,
2013-07-24 11:30:00,80.9,72.6,29.76,SSE,163,1.0,1.0,76,0.00,,,0.00,Wunderground v.1.15,2013-07-24 15:30:00,
2013-07-24 11:40:00,81.1,71.2,29.77,SE,142,2.0,4.0,72,0.00,,,0.00,Wunderground v.1.15,2013-07-24 15:40:00,
2013-07-24 11:45:00,81.3,70.6,29.77,ESE,120,2.0,4.0,70,0.00,,,0.00,Wunderground v.1.15,2013-07-24 15:45:00,
2013-07-24 11:55:00,80.7,69.6,29.77,East,92,2.0,2.0,69,0.00,,,0.00,Wunderground v.1.15,2013-07-24 15:55:00,
2013-07-24 12:00:00,80.5,70.2,29.77,NE,36,1.0,1.0,71,0.00,,,0.00,Wunderground v.1.15,2013-07-24 16:00:00,
2013-07-24 12:10:00,80.4,70.1,29.77,NE,36,1.0,2.0,71,0.00,,,0.00,Wunderground v.1.15,2013-07-24 16:10:00,
2013-07-24 12:15:00,80.8,70.5,29.77,NE,38,1.0,2.0,71,0.00,,,0.00,Wunderground v.1.15,2013-07-24 16:15:00,
2013-07-24 12:25:00,82.3,71.1,29.77,East,98,2.0,5.0,69,0.00,,,0.00,Wunderground v.1.15,2013-07-24 16:25:00,
2013-07-24 12:30:00,82.6,72.7,29.77,North,11,2.0,4.0,72,0.00,,,0.00,Wunderground v.1.15,2013-07-24 16:30:00,
2013-07-24 12:40:00,83.1,73.1,29.76,SE,126,2.0,3.0,72,0.00,,,0.00,Wunderground v.1.15,2013-07-24 16:40:00,
2013-07-24 12:45:00,83.0,70.0,29.76,SE,132,3.0,3.0,65,0.00,,,0.00,Wunderground v.1.15,2013-07-24 16:45:00,
2013-07-24 12:55:00,82.8,70.7,29.76,East,96,2.0,5.0,67,0.00,,,0.00,Wunderground v.1.15,2013-07-24 16:55:00,
2013-07-24 13:00:00,83.0,71.8,29.76,SE,130,2.0,3.0,69,0.00,,,0.00,Wunderground v.1.15,2013-07-24 17:00:00,
2013-07-24 13:05:00,83.4,71.3,29.76,SSW,194,2.0,3.0,67,0.00,,,0.00,Wunderground v.1.15,2013-07-24 17:05:00,
2013-07-24 13:15:00,82.6,70.5,29.76,East,92,3.0,4.0,67,0.00,,,0.00,Wunderground v.1.15,2013-07-24 17:15:00,
2013-07-24 13:25:00,82.7,70.6,29.76,SSE,161,2.0,4.0,67,0.00,,,0.00,Wunderground v.1.15,2013-07-24 17:25:00,
2013-07-24 13:30:00,83.0,71.3,29.75,East,94,2.0,2.0,68,0.00,,,0.00,Wunderground v.1.15,2013-07-24 17:30:00,
2013-07-24 13:40:00,83.1,70.6,29.75,NE,35,2.0,3.0,66,0.00,,,0.00,Wunderground v.1.15,2013-07-24 17:40:00,
2013-07-24 13:45:00,82.8,71.2,29.76,NNE,32,3.0,3.0,68,0.00,,,0.00,Wunderground v.1.15,2013-07-24 17:45:00,
2013-07-24 13:55:00,82.3,70.2,29.75,East,91,2.0,6.0,67,0.00,,,0.00,Wunderground v.1.15,2013-07-24 17:55:00,
2013-07-24 14:00:00,82.2,71.0,29.75,East,90,2.0,5.0,69,0.00,,,0.00,Wunderground v.1.15,2013-07-24 18:00:00,
2013-07-24 14:10:00,81.6,70.9,29.75,NE,45,2.0,3.0,70,0.00,,,0.00,Wunderground v.1.15,2013-07-24 18:10:00,
2013-07-24 14:15:00,81.3,71.0,29.75,NE,53,2.0,3.0,71,0.00,,,0.00,Wunderground v.1.15,2013-07-24 18:15:00,
2013-07-24 14:25:00,80.7,72.0,29.76,NE,37,2.0,5.0,75,0.00,,,0.00,Wunderground v.1.15,2013-07-24 18:25:00,
2013-07-24 14:30:00,80.0,72.1,29.75,NNE,33,2.0,2.0,77,0.00,,,0.00,Wunderground v.1.15,2013-07-24 18:30:00,
2013-07-24 14:35:00,79.7,73.3,29.75,NNE,33,0.0,2.0,81,0.00,,,0.00,Wunderground v.1.15,2013-07-24 18:35:00,
2013-07-24 14:50:00,78.6,72.3,29.75,NNE,33,0.0,0.0,81,0.00,,,0.00,Wunderground v.1.15,2013-07-24 18:50:00,
2013-07-24 15:05:00,77.8,72.2,29.76,South,183,0.0,0.0,83,0.00,,,0.00,Wunderground v.1.15,2013-07-24 19:05:00,
2013-07-24 15:10:00,77.9,72.7,29.76,North,349,1.0,3.0,84,0.00,,,0.00,Wunderground v.1.15,2013-07-24 19:10:00,
2013-07-24 15:15:00,78.1,72.2,29.75,NNW,336,2.0,3.0,82,0.00,,,0.00,Wunderground v.1.15,2013-07-24 19:15:00,
2013-07-24 15:25:00,78.6,70.8,29.76,NNW,338,2.0,4.0,77,0.00,,,0.00,Wunderground v.1.15,2013-07-24 19:25:00,
2013-07-24 15:30:00,78.0,70.6,29.77,SW,232,4.0,4.0,78,0.00,,,0.00,Wunderground v.1.15,2013-07-24 19:30:00,
2013-07-24 15:40:00,78.0,71.0,29.76,NNW,343,2.0,3.0,79,0.00,,,0.00,Wunderground v.1.15,2013-07-24 19:40:00,
2013-07-24 15:45:00,78.8,70.6,29.76,NW,319,2.0,3.0,76,0.00,,,0.00,Wunderground v.1.15,2013-07-24 19:45:00,
2013-07-24 15:55:00,79.5,71.7,29.75,West,267,2.0,3.0,77,0.00,,,0.00,Wunderground v.1.15,2013-07-24 19:55:00,
2013-07-24 16:00:00,79.5,70.9,29.75,WSW,237,2.0,2.0,75,0.00,,,0.00,Wunderground v.1.15,2013-07-24 20:00:00,
2013-07-24 16:10:00,80.5,72.2,29.75,NNE,17,1.0,1.0,76,0.00,,,0.00,Wunderground v.1.15,2013-07-24 20:10:00,
2013-07-24 16:15:00,80.9,71.8,29.75,SW,218,1.0,3.0,74,0.00,,,0.00,Wunderground v.1.15,2013-07-24 20:15:00,
2013-07-24 16:25:00,81.1,72.4,29.75,South,169,2.0,5.0,75,0.00,,,0.00,Wunderground v.1.15,2013-07-24 20:25:00,
2013-07-24 16:30:00,81.3,73.4,29.75,NW,305,2.0,2.0,77,0.00,,,0.00,Wunderground v.1.15,2013-07-24 20:30:00,
2013-07-24 16:40:00,80.9,74.1,29.75,North,350,3.0,3.0,80,0.00,,,0.00,Wunderground v.1.15,2013-07-24 20:40:00,
2013-07-24 16:50:00,80.6,72.7,29.75,South,184,1.0,1.0,77,0.00,,,0.00,Wunderground v.1.15,2013-07-24 20:50:00,
2013-07-24 16:55:00,80.3,71.3,29.75,North,5,1.0,1.0,74,0.00,,,0.00,Wunderground v.1.15,2013-07-24 20:55:00,
2013-07-24 17:05:00,79.4,72.3,29.76,NE,40,1.0,2.0,79,0.00,,,0.00,Wunderground v.1.15,2013-07-24 21:05:00,
2013-07-24 17:10:00,78.7,71.3,29.76,North,360,1.0,2.0,78,0.00,,,0.01,Wunderground v.1.15,2013-07-24 21:10:00,
2013-07-24 17:15:00,76.8,71.2,29.76,NNE,32,3.0,6.0,83,0.80,,,0.08,Wunderground v.1.15,2013-07-24 21:15:00,
2013-07-24 17:25:00,74.3,70.5,29.76,NNE,28,4.0,5.0,88,0.77,,,0.13,Wunderground v.1.15,2013-07-24 21:25:00,
2013-07-24 17:30:00,74.0,70.9,29.75,NNE,26,3.0,3.0,90,0.15,,,0.14,Wunderground v.1.15,2013-07-24 21:30:00,
2013-07-24 17:40:00,74.2,71.4,29.76,North,5,1.0,1.0,91,0.07,,,0.15,Wunderground v.1.15,2013-07-24 21:40:00,
2013-07-24 17:45:00,74.4,71.9,29.76,North,5,0.0,1.0,92,0.04,,,0.15,Wunderground v.1.15,2013-07-24 21:45:00,
2013-07-24 17:55:00,75.2,72.4,29.76,NNW,337,0.0,2.0,91,0.00,,,0.15,Wunderground v.1.15,2013-07-24 21:55:00,
2013-07-24 18:00:00,75.2,71.7,29.76,North,10,1.0,1.0,89,0.00,,,0.15,Wunderground v.1.15,2013-07-24 22:00:00,
2013-07-24 18:05:00,75.2,71.7,29.75,NE,50,1.0,1.0,89,0.00,,,0.15,Wunderground v.1.15,2013-07-24 22:05:00,
2013-07-24 18:15:00,75.3,71.8,29.76,NNE,19,1.0,3.0,89,0.00,,,0.15,Wunderground v.1.15,2013-07-24 22:15:00,
2013-07-24 18:20:00,75.0,71.5,29.76,NE,54,1.0,4.0,89,0.00,,,0.15,Wunderground v.1.15,2013-07-24 22:20:00,
2013-07-24 18:25:00,75.0,71.5,29.77,ENE,76,2.0,4.0,89,0.00,,,0.15,Wunderground v.1.15,2013-07-24 22:25:00,
2013-07-24 18:35:00,74.9,71.8,29.76,SSE,153,1.0,3.0,90,0.00,,,0.15,Wunderground v.1.15,2013-07-24 22:35:00,
2013-07-24 18:45:00,73.8,69.3,29.76,East,97,2.0,3.0,86,0.00,,,0.15,Wunderground v.1.15,2013-07-24 22:45:00,
2013-07-24 18:55:00,72.6,69.2,29.77,SSE,165,3.0,3.0,89,0.00,,,0.15,Wunderground v.1.15,2013-07-24 22:55:00,
2013-07-24 19:00:00,72.3,68.9,29.77,South,180,2.0,2.0,89,0.00,,,0.15,Wunderground v.1.15,2013-07-24 23:00:00,
2013-07-24 19:25:00,71.1,68.3,29.81,SE,146,3.0,3.0,91,0.00,,,0.15,Wunderground v.1.15,2013-07-24 23:25:00,
2013-07-24 19:30:00,70.8,68.0,29.81,WSW,237,3.0,4.0,91,0.00,,,0.15,Wunderground v.1.15,2013-07-24 23:30:00,
2013-07-24 20:00:00,69.0,66.9,29.83,NNE,32,4.0,6.0,93,0.29,,,0.90,Wunderground v.1.15,2013-07-25 00:00:00,
2013-07-24 20:05:00,69.2,67.1,29.83,NNE,28,4.0,6.0,93,0.20,,,0.92,Wunderground v.1.15,2013-07-25 00:05:00,
2013-07-24 20:15:00,69.0,66.6,29.83,NNE,33,2.0,4.0,92,0.06,,,0.93,Wunderground v.1.15,2013-07-25 00:15:00,
2013-07-24 20:25:00,69.0,66.9,29.82,ENE,63,0.0,1.0,93,0.05,,,0.94,Wunderground v.1.15,2013-07-25 00:25:00,
2013-07-24 20:30:00,68.8,67.0,29.82,SSE,167,1.0,1.0,94,0.05,,,0.94,Wunderground v.1.15,2013-07-25 00:30:00,
2013-07-24 20:40:00,68.6,66.8,29.83,SW,228,0.0,0.0,94,0.00,,,0.94,Wunderground v.1.15,2013-07-25 00:40:00,
2013-07-24 20:45:00,68.5,66.7,29.83,SW,228,0.0,0.0,94,0.00,,,0.94,Wunderground v.1.15,2013-07-25 00:45:00,
2013-07-24 20:55:00,68.6,67.1,29.84,North,10,0.0,0.0,95,0.00,,,0.94,Wunderground v.1.15,2013-07-25 00:55:00,
2013-07-24 21:00:00,68.6,67.1,29.84,North,10,0.0,0.0,95,0.00,,,0.94,Wunderground v.1.15,2013-07-25 01:00:00,
2013-07-24 21:10:00,68.7,67.2,29.85,North,10,0.0,0.0,95,0.00,,,0.94,Wunderground v.1.15,2013-07-25 01:10:00,
2013-07-24 21:20:00,68.8,67.3,29.85,North,9,0.0,0.0,95,0.00,,,0.94,Wunderground v.1.15,2013-07-25 01:20:00,
2013-07-24 21:25:00,68.9,67.7,29.85,North,9,0.0,1.0,96,0.00,,,0.94,Wunderground v.1.15,2013-07-25 01:25:00,
2013-07-24 21:30:00,69.1,67.9,29.86,North,9,0.0,0.0,96,0.00,,,0.94,Wunderground v.1.15,2013-07-25 01:30:00,
2013-07-24 21:40:00,69.1,67.9,29.85,North,9,0.0,0.0,96,0.00,,,0.94,Wunderground v.1.15,2013-07-25 01:40:00,
2013-07-24 21:45:00,69.1,67.9,29.85,North,9,0.0,0.0,96,0.00,,,0.94,Wunderground v.1.15,2013-07-25 01:45:00,
2013-07-24 21:55:00,69.0,67.8,29.86,WNW,299,0.0,1.0,96,0.00,,,0.94,Wunderground v.1.15,2013-07-25 01:55:00,
2013-07-24 22:00:00,69.0,67.8,29.86,NNW,338,1.0,1.0,96,0.00,,,0.94,Wunderground v.1.15,2013-07-25 02:00:00,
2013-07-24 22:05:00,68.7,67.2,29.86,ESE,114,0.0,1.0,95,0.00,,,0.94,Wunderground v.1.15,2013-07-25 02:05:00,
2013-07-24 22:15:00,68.7,67.2,29.87,East,90,1.0,1.0,95,0.00,,,0.94,Wunderground v.1.15,2013-07-25 02:15:00,
2013-07-24 22:25:00,68.5,67.0,29.87,SSE,147,0.0,1.0,95,0.00,,,0.94,Wunderground v.1.15,2013-07-25 02:25:00,
2013-07-24 22:30:00,68.5,67.0,29.87,SSE,147,0.0,0.0,95,0.00,,,0.94,Wunderground v.1.15,2013-07-25 02:30:00,
2013-07-24 22:35:00,68.5,67.0,29.87,SSE,147,0.0,0.0,95,0.00,,,0.94,Wunderground v.1.15,2013-07-25 02:35:00,
2013-07-24 22:45:00,68.2,66.7,29.87,SSE,147,0.0,0.0,95,0.00,,,0.94,Wunderground v.1.15,2013-07-25 02:45:00,
2013-07-24 22:55:00,68.0,66.5,29.88,SSE,147,0.0,0.0,95,0.00,,,0.94,Wunderground v.1.15,2013-07-25 02:55:00,
2013-07-24 23:00:00,67.8,66.3,29.88,SSE,147,0.0,0.0,95,0.00,,,0.94,Wunderground v.1.15,2013-07-25 03:00:00,
2013-07-24 23:15:00,67.4,65.9,29.89,SSE,147,0.0,0.0,95,0.00,,,0.94,Wunderground v.1.15,2013-07-25 03:15:00,
2013-07-24 23:20:00,67.1,65.3,29.89,ENE,73,0.0,0.0,94,0.00,,,0.94,Wunderground v.1.15,2013-07-25 03:20:00,
2013-07-24 23:30:00,66.7,65.2,29.89,ENE,73,0.0,0.0,95,0.00,,,0.94,Wunderground v.1.15,2013-07-25 03:30:00,
2013-07-24 23:45:00,66.5,65.0,29.89,ENE,73,0.0,0.0,95,0.00,,,0.94,Wunderground v.1.15,2013-07-25 03:45:00,
2013-07-24 23:55:00,66.6,65.1,29.89,ENE,73,0.0,0.0,95,0.00,,,0.94,Wunderground v.1.15,2013-07-25 03:55:00,